sensor_id;sensor_type;location;lat;lon;timestamp;temperature;humidity
26745;DHT22;14342;50.960;13.880;2023-04-01T00:00:09;10.40;99.90
26745;DHT22;14342;50.960;13.880;2023-04-01T00:01:11;10.40;99.90
26745;DHT22;14342;50.960;13.880;2023-04-01T00:02:14;10.40;99.90
26745;DHT22;14342;50.960;13.880;2023-04-01T00:03:15;10.50;99.90
26745;DHT22;14342;50.960;13.880;2023-04-01T00:04:16;10.60;99.90
26745;DHT22;14342;50.960;13.880;2023-04-01T00:05:18;10.60;99.90
26745;DHT22;14342;50.960;13.880;2023-04-01T00:06:18;10.50;99.90
26745;DHT22;14342;50.960;13.880;2023-04-01T00:07:20;10.40;99.90
26745;DHT22;14342;50.960;13.880;2023-04-01T00:08:20;10.40;99.90
26745;DHT22;14342;50.960;13.880;2023-04-01T00:09:22;10.40;99.90
26745;DHT22;14342;50.960;13.880;2023-04-01T00:10:23;10.40;99.90
26745;DHT22;14342;50.960;13.880;2023-04-01T00:11:26;10.40;99.90
26745;DHT22;14342;50.960;13.880;2023-04-01T00:12:27;10.50;99.90
26745;DHT22;14342;50.960;13.880;2023-04-01T00:13:28;10.50;99.90
26745;DHT22;14342;50.960;13.880;2023-04-01T00:14:30;10.40;99.90
26745;DHT22;14342;50.960;13.880;2023-04-01T00:15:30;10.40;99.90
26745;DHT22;14342;50.960;13.880;2023-04-01T00:16:32;10.50;99.90
26745;DHT22;14342;50.960;13.880;2023-04-01T00:17:32;10.50;99.90
26745;DHT22;14342;50.960;13.880;2023-04-01T00:18:34;10.60;99.90
26745;DHT22;14342;50.960;13.880;2023-04-01T00:19:36;10.60;99.90
26745;DHT22;14342;50.960;13.880;2023-04-01T00:20:37;10.50;99.90
26745;DHT22;14342;50.960;13.880;2023-04-01T00:21:38;10.40;99.90
26745;DHT22;14342;50.960;13.880;2023-04-01T00:22:39;10.40;99.90
26745;DHT22;14342;50.960;13.880;2023-04-01T00:23:41;10.30;99.90
26745;DHT22;14342;50.960;13.880;2023-04-01T00:24:42;10.30;99.90
26745;DHT22;14342;50.960;13.880;2023-04-01T00:25:43;10.30;99.90
26745;DHT22;14342;50.960;13.880;2023-04-01T00:26:46;10.30;99.90
26745;DHT22;14342;50.960;13.880;2023-04-01T00:27:49;10.30;99.90
26745;DHT22;14342;50.960;13.880;2023-04-01T00:28:50;10.20;99.90
26745;DHT22;14342;50.960;13.880;2023-04-01T00:29:52;10.20;99.90
26745;DHT22;14342;50.960;13.880;2023-04-01T00:30:52;10.20;99.90
26745;DHT22;14342;50.960;13.880;2023-04-01T00:31:54;10.20;99.90
26745;DHT22;14342;50.960;13.880;2023-04-01T00:32:56;10.20;99.90
26745;DHT22;14342;50.960;13.880;2023-04-01T00:33:57;10.20;99.90
26745;DHT22;14342;50.960;13.880;2023-04-01T00:34:59;10.20;99.90
26745;DHT22;14342;50.960;13.880;2023-04-01T00:36:05;10.10;99.90
26745;DHT22;14342;50.960;13.880;2023-04-01T00:37:07;10.10;99.90
26745;DHT22;14342;50.960;13.880;2023-04-01T00:38:07;10.10;99.90
26745;DHT22;14342;50.960;13.880;2023-04-01T00:39:11;10.10;99.90
26745;DHT22;14342;50.960;13.880;2023-04-01T00:40:20;10.10;99.90
26745;DHT22;14342;50.960;13.880;2023-04-01T00:41:23;10.10;99.90
26745;DHT22;14342;50.960;13.880;2023-04-01T00:42:25;10.10;99.90
26745;DHT22;14342;50.960;13.880;2023-04-01T00:43:27;10.20;99.90
26745;DHT22;14342;50.960;13.880;2023-04-01T00:44:28;10.20;99.90
26745;DHT22;14342;50.960;13.880;2023-04-01T00:45:32;10.10;99.90
26745;DHT22;14342;50.960;13.880;2023-04-01T00:46:32;10.10;99.90
26745;DHT22;14342;50.960;13.880;2023-04-01T00:47:35;10.10;99.90
26745;DHT22;14342;50.960;13.880;2023-04-01T00:48:38;10.10;99.90
26745;DHT22;14342;50.960;13.880;2023-04-01T00:49:40;10.10;99.90
26745;DHT22;14342;50.960;13.880;2023-04-01T00:50:43;10.10;99.90
26745;DHT22;14342;50.960;13.880;2023-04-01T00:51:47;10.20;99.90
26745;DHT22;14342;50.960;13.880;2023-04-01T00:52:48;10.20;99.90
26745;DHT22;14342;50.960;13.880;2023-04-01T00:53:51;10.20;99.90
26745;DHT22;14342;50.960;13.880;2023-04-01T00:54:54;10.20;99.90
26745;DHT22;14342;50.960;13.880;2023-04-01T00:55:59;10.10;99.90
26745;DHT22;14342;50.960;13.880;2023-04-01T00:57:02;10.20;99.90
26745;DHT22;14342;50.960;13.880;2023-04-01T00:58:06;10.20;99.90
26745;DHT22;14342;50.960;13.880;2023-04-01T00:59:10;10.20;99.90
26745;DHT22;14342;50.960;13.880;2023-04-01T01:00:11;10.10;99.90
26745;DHT22;14342;50.960;13.880;2023-04-01T01:01:15;10.10;99.90
26745;DHT22;14342;50.960;13.880;2023-04-01T01:02:16;10.00;99.90
26745;DHT22;14342;50.960;13.880;2023-04-01T01:03:17;10.00;99.90
26745;DHT22;14342;50.960;13.880;2023-04-01T01:04:22;10.10;99.90
26745;DHT22;14342;50.960;13.880;2023-04-01T01:05:30;10.10;99.90
26745;DHT22;14342;50.960;13.880;2023-04-01T01:06:37;10.10;99.90
26745;DHT22;14342;50.960;13.880;2023-04-01T01:07:41;10.10;99.90
26745;DHT22;14342;50.960;13.880;2023-04-01T01:08:53;10.10;99.90
26745;DHT22;14342;50.960;13.880;2023-04-01T01:09:59;10.10;99.90
26745;DHT22;14342;50.960;13.880;2023-04-01T01:11:02;10.00;99.90
26745;DHT22;14342;50.960;13.880;2023-04-01T01:12:06;10.00;99.90
26745;DHT22;14342;50.960;13.880;2023-04-01T01:13:10;10.00;99.90
26745;DHT22;14342;50.960;13.880;2023-04-01T01:14:17;10.00;99.90
26745;DHT22;14342;50.960;13.880;2023-04-01T01:15:22;10.00;99.90
26745;DHT22;14342;50.960;13.880;2023-04-01T01:16:25;10.00;99.90
26745;DHT22;14342;50.960;13.880;2023-04-01T01:17:31;10.00;99.90
26745;DHT22;14342;50.960;13.880;2023-04-01T01:18:34;10.10;99.90
26745;DHT22;14342;50.960;13.880;2023-04-01T01:19:44;10.10;99.90
26745;DHT22;14342;50.960;13.880;2023-04-01T01:20:53;10.10;99.90
26745;DHT22;14342;50.960;13.880;2023-04-01T01:22:01;10.10;99.90
26745;DHT22;14342;50.960;13.880;2023-04-01T01:24:44;10.20;99.90
26745;DHT22;14342;50.960;13.880;2023-04-01T01:25:54;10.20;99.90
26745;DHT22;14342;50.960;13.880;2023-04-01T01:27:00;10.20;99.90
26745;DHT22;14342;50.960;13.880;2023-04-01T01:28:07;10.20;99.90
26745;DHT22;14342;50.960;13.880;2023-04-01T01:29:16;10.20;99.90
26745;DHT22;14342;50.960;13.880;2023-04-01T01:30:26;10.20;99.90
26745;DHT22;14342;50.960;13.880;2023-04-01T01:31:33;10.20;99.90
26745;DHT22;14342;50.960;13.880;2023-04-01T01:32:41;10.20;99.90
26745;DHT22;14342;50.960;13.880;2023-04-01T01:33:51;10.20;99.90
26745;DHT22;14342;50.960;13.880;2023-04-01T01:36:00;10.20;99.90
26745;DHT22;14342;50.960;13.880;2023-04-01T01:37:03;10.10;99.90
26745;DHT22;14342;50.960;13.880;2023-04-01T01:38:06;10.20;99.90
26745;DHT22;14342;50.960;13.880;2023-04-01T01:39:09;10.20;99.90
26745;DHT22;14342;50.960;13.880;2023-04-01T01:40:11;10.20;99.90
26745;DHT22;14342;50.960;13.880;2023-04-01T01:41:13;10.30;99.90
26745;DHT22;14342;50.960;13.880;2023-04-01T01:42:15;10.30;99.90
26745;DHT22;14342;50.960;13.880;2023-04-01T01:43:19;10.30;99.90
26745;DHT22;14342;50.960;13.880;2023-04-01T01:44:19;10.30;99.90
26745;DHT22;14342;50.960;13.880;2023-04-01T01:45:23;10.30;99.90
26745;DHT22;14342;50.960;13.880;2023-04-01T01:46:24;10.20;99.90
26745;DHT22;14342;50.960;13.880;2023-04-01T01:47:27;10.10;99.90
26745;DHT22;14342;50.960;13.880;2023-04-01T01:48:28;10.00;99.90
26745;DHT22;14342;50.960;13.880;2023-04-01T01:49:30;10.00;99.90
26745;DHT22;14342;50.960;13.880;2023-04-01T01:50:32;10.10;99.90
26745;DHT22;14342;50.960;13.880;2023-04-01T01:51:36;10.10;99.90
26745;DHT22;14342;50.960;13.880;2023-04-01T01:52:37;10.10;99.90
26745;DHT22;14342;50.960;13.880;2023-04-01T01:53:39;10.10;99.90
26745;DHT22;14342;50.960;13.880;2023-04-01T01:54:46;10.10;99.90
26745;DHT22;14342;50.960;13.880;2023-04-01T01:55:48;10.10;99.90
26745;DHT22;14342;50.960;13.880;2023-04-01T01:56:49;10.10;99.90
26745;DHT22;14342;50.960;13.880;2023-04-01T01:57:52;10.10;99.90
26745;DHT22;14342;50.960;13.880;2023-04-01T01:58:55;10.20;99.90
26745;DHT22;14342;50.960;13.880;2023-04-01T01:59:59;10.20;99.90
26745;DHT22;14342;50.960;13.880;2023-04-01T02:01:01;10.20;99.90
26745;DHT22;14342;50.960;13.880;2023-04-01T02:02:04;10.10;99.90
26745;DHT22;14342;50.960;13.880;2023-04-01T02:03:08;10.10;99.90
26745;DHT22;14342;50.960;13.880;2023-04-01T02:04:09;10.10;99.90
26745;DHT22;14342;50.960;13.880;2023-04-01T02:05:11;10.10;99.90
26745;DHT22;14342;50.960;13.880;2023-04-01T02:06:19;10.10;99.90
26745;DHT22;14342;50.960;13.880;2023-04-01T02:07:24;10.10;99.90
26745;DHT22;14342;50.960;13.880;2023-04-01T02:08:27;10.10;99.90
26745;DHT22;14342;50.960;13.880;2023-04-01T02:09:30;10.00;99.90
26745;DHT22;14342;50.960;13.880;2023-04-01T02:10:31;10.10;99.90
26745;DHT22;14342;50.960;13.880;2023-04-01T02:11:36;10.10;99.90
26745;DHT22;14342;50.960;13.880;2023-04-01T02:12:38;10.10;99.90
26745;DHT22;14342;50.960;13.880;2023-04-01T02:13:42;10.10;99.90
26745;DHT22;14342;50.960;13.880;2023-04-01T02:14:45;10.10;99.90
26745;DHT22;14342;50.960;13.880;2023-04-01T02:15:48;10.10;99.90
26745;DHT22;14342;50.960;13.880;2023-04-01T02:16:51;10.10;99.90
26745;DHT22;14342;50.960;13.880;2023-04-01T02:17:54;10.10;99.90
26745;DHT22;14342;50.960;13.880;2023-04-01T02:18:57;10.10;99.90
26745;DHT22;14342;50.960;13.880;2023-04-01T02:20:00;10.20;99.90
26745;DHT22;14342;50.960;13.880;2023-04-01T02:21:02;10.20;99.90
26745;DHT22;14342;50.960;13.880;2023-04-01T02:22:06;10.20;99.90
26745;DHT22;14342;50.960;13.880;2023-04-01T02:23:10;10.20;99.90
26745;DHT22;14342;50.960;13.880;2023-04-01T02:24:12;10.20;99.90
26745;DHT22;14342;50.960;13.880;2023-04-01T02:25:14;10.10;99.90
26745;DHT22;14342;50.960;13.880;2023-04-01T02:26:17;10.10;99.90
26745;DHT22;14342;50.960;13.880;2023-04-01T02:27:18;10.10;99.90
26745;DHT22;14342;50.960;13.880;2023-04-01T02:28:20;10.10;99.90
26745;DHT22;14342;50.960;13.880;2023-04-01T02:29:21;10.10;99.90
26745;DHT22;14342;50.960;13.880;2023-04-01T02:30:24;10.20;99.90
26745;DHT22;14342;50.960;13.880;2023-04-01T02:31:26;10.20;99.90
26745;DHT22;14342;50.960;13.880;2023-04-01T02:32:28;10.30;99.90
26745;DHT22;14342;50.960;13.880;2023-04-01T02:33:30;10.30;99.90
26745;DHT22;14342;50.960;13.880;2023-04-01T02:34:32;10.20;99.90
26745;DHT22;14342;50.960;13.880;2023-04-01T02:35:33;10.30;99.90
26745;DHT22;14342;50.960;13.880;2023-04-01T02:36:35;10.30;99.90
26745;DHT22;14342;50.960;13.880;2023-04-01T02:37:37;10.20;99.90
26745;DHT22;14342;50.960;13.880;2023-04-01T02:38:44;10.30;99.90
26745;DHT22;14342;50.960;13.880;2023-04-01T02:39:45;10.30;99.90
26745;DHT22;14342;50.960;13.880;2023-04-01T02:40:47;10.30;99.90
26745;DHT22;14342;50.960;13.880;2023-04-01T02:41:48;10.20;99.90
26745;DHT22;14342;50.960;13.880;2023-04-01T02:42:50;10.20;99.90
26745;DHT22;14342;50.960;13.880;2023-04-01T02:43:51;10.30;99.90
26745;DHT22;14342;50.960;13.880;2023-04-01T02:44:52;10.30;99.90
26745;DHT22;14342;50.960;13.880;2023-04-01T02:45:53;10.20;99.90
26745;DHT22;14342;50.960;13.880;2023-04-01T02:46:55;10.10;99.90
26745;DHT22;14342;50.960;13.880;2023-04-01T02:47:55;10.20;99.90
26745;DHT22;14342;50.960;13.880;2023-04-01T02:48:57;10.20;99.90
26745;DHT22;14342;50.960;13.880;2023-04-01T02:49:57;10.20;99.90
26745;DHT22;14342;50.960;13.880;2023-04-01T02:50:59;10.20;99.90
26745;DHT22;14342;50.960;13.880;2023-04-01T02:52:00;10.20;99.90
26745;DHT22;14342;50.960;13.880;2023-04-01T02:53:01;10.20;99.90
26745;DHT22;14342;50.960;13.880;2023-04-01T02:54:05;10.20;99.90
26745;DHT22;14342;50.960;13.880;2023-04-01T02:55:07;10.30;99.90
26745;DHT22;14342;50.960;13.880;2023-04-01T02:56:07;10.30;99.90
26745;DHT22;14342;50.960;13.880;2023-04-01T02:57:09;10.30;99.90
26745;DHT22;14342;50.960;13.880;2023-04-01T02:58:10;10.30;99.90
26745;DHT22;14342;50.960;13.880;2023-04-01T02:59:11;10.30;99.90
26745;DHT22;14342;50.960;13.880;2023-04-01T03:00:12;10.30;99.90
26745;DHT22;14342;50.960;13.880;2023-04-01T03:01:14;10.30;99.90
26745;DHT22;14342;50.960;13.880;2023-04-01T03:02:15;10.30;99.90
26745;DHT22;14342;50.960;13.880;2023-04-01T03:03:17;10.40;99.90
26745;DHT22;14342;50.960;13.880;2023-04-01T03:04:18;10.30;99.90
26745;DHT22;14342;50.960;13.880;2023-04-01T03:05:19;10.30;99.90
26745;DHT22;14342;50.960;13.880;2023-04-01T03:06:20;10.30;99.90
26745;DHT22;14342;50.960;13.880;2023-04-01T03:07:22;10.20;99.90
26745;DHT22;14342;50.960;13.880;2023-04-01T03:08:22;10.30;99.90
26745;DHT22;14342;50.960;13.880;2023-04-01T03:09:25;10.30;99.90
26745;DHT22;14342;50.960;13.880;2023-04-01T03:10:26;10.50;99.90
26745;DHT22;14342;50.960;13.880;2023-04-01T03:11:27;10.30;99.90
26745;DHT22;14342;50.960;13.880;2023-04-01T03:12:28;10.20;99.90
26745;DHT22;14342;50.960;13.880;2023-04-01T03:13:29;10.20;99.90
26745;DHT22;14342;50.960;13.880;2023-04-01T03:14:30;10.20;99.90
26745;DHT22;14342;50.960;13.880;2023-04-01T03:15:31;10.20;99.90
26745;DHT22;14342;50.960;13.880;2023-04-01T03:16:32;10.10;99.90
26745;DHT22;14342;50.960;13.880;2023-04-01T03:17:34;10.20;99.90
26745;DHT22;14342;50.960;13.880;2023-04-01T03:18:34;10.20;99.90
26745;DHT22;14342;50.960;13.880;2023-04-01T03:19:36;10.30;99.90
26745;DHT22;14342;50.960;13.880;2023-04-01T03:20:36;10.30;99.90
26745;DHT22;14342;50.960;13.880;2023-04-01T03:21:38;10.30;99.90
26745;DHT22;14342;50.960;13.880;2023-04-01T03:22:38;10.30;99.90
26745;DHT22;14342;50.960;13.880;2023-04-01T03:23:40;10.40;99.90
26745;DHT22;14342;50.960;13.880;2023-04-01T03:24:42;10.40;99.90
26745;DHT22;14342;50.960;13.880;2023-04-01T03:25:43;10.40;99.90
26745;DHT22;14342;50.960;13.880;2023-04-01T03:26:44;10.40;99.90
26745;DHT22;14342;50.960;13.880;2023-04-01T03:27:46;10.40;99.90
26745;DHT22;14342;50.960;13.880;2023-04-01T03:28:46;10.30;99.90
26745;DHT22;14342;50.960;13.880;2023-04-01T03:29:48;10.30;99.90
26745;DHT22;14342;50.960;13.880;2023-04-01T03:30:48;10.30;99.90
26745;DHT22;14342;50.960;13.880;2023-04-01T03:31:50;10.30;99.90
26745;DHT22;14342;50.960;13.880;2023-04-01T03:32:51;10.30;99.90
26745;DHT22;14342;50.960;13.880;2023-04-01T03:33:52;10.30;99.90
26745;DHT22;14342;50.960;13.880;2023-04-01T03:34:53;10.30;99.90
26745;DHT22;14342;50.960;13.880;2023-04-01T03:35:54;10.40;99.90
26745;DHT22;14342;50.960;13.880;2023-04-01T03:36:55;10.30;99.90
26745;DHT22;14342;50.960;13.880;2023-04-01T03:37:56;10.30;99.90
26745;DHT22;14342;50.960;13.880;2023-04-01T03:38:57;10.30;99.90
26745;DHT22;14342;50.960;13.880;2023-04-01T03:40:00;10.40;99.90
26745;DHT22;14342;50.960;13.880;2023-04-01T03:41:00;10.40;99.90
26745;DHT22;14342;50.960;13.880;2023-04-01T03:42:02;10.30;99.90
26745;DHT22;14342;50.960;13.880;2023-04-01T03:43:03;10.40;99.90
26745;DHT22;14342;50.960;13.880;2023-04-01T03:44:08;10.30;99.90
26745;DHT22;14342;50.960;13.880;2023-04-01T03:45:09;10.30;99.90
26745;DHT22;14342;50.960;13.880;2023-04-01T03:46:16;10.30;99.90
26745;DHT22;14342;50.960;13.880;2023-04-01T03:47:17;10.30;99.90
26745;DHT22;14342;50.960;13.880;2023-04-01T03:48:18;10.30;99.90
26745;DHT22;14342;50.960;13.880;2023-04-01T03:49:19;10.40;99.90
26745;DHT22;14342;50.960;13.880;2023-04-01T03:50:20;10.40;99.90
26745;DHT22;14342;50.960;13.880;2023-04-01T03:51:22;10.50;99.90
26745;DHT22;14342;50.960;13.880;2023-04-01T03:52:22;10.50;99.90
26745;DHT22;14342;50.960;13.880;2023-04-01T03:53:24;10.40;99.90
26745;DHT22;14342;50.960;13.880;2023-04-01T03:54:25;10.40;99.90
26745;DHT22;14342;50.960;13.880;2023-04-01T03:55:28;10.40;99.90
26745;DHT22;14342;50.960;13.880;2023-04-01T03:56:28;10.30;99.90
26745;DHT22;14342;50.960;13.880;2023-04-01T03:57:30;10.30;99.90
26745;DHT22;14342;50.960;13.880;2023-04-01T03:58:31;10.30;99.90
26745;DHT22;14342;50.960;13.880;2023-04-01T03:59:33;10.30;99.90
26745;DHT22;14342;50.960;13.880;2023-04-01T04:00:34;10.40;99.90
26745;DHT22;14342;50.960;13.880;2023-04-01T04:01:35;10.40;99.90
26745;DHT22;14342;50.960;13.880;2023-04-01T04:02:36;10.40;99.90
26745;DHT22;14342;50.960;13.880;2023-04-01T04:03:38;10.40;99.90
26745;DHT22;14342;50.960;13.880;2023-04-01T04:04:38;10.40;99.90
26745;DHT22;14342;50.960;13.880;2023-04-01T04:05:45;10.40;99.90
26745;DHT22;14342;50.960;13.880;2023-04-01T04:06:46;10.40;99.90
26745;DHT22;14342;50.960;13.880;2023-04-01T04:07:48;10.50;99.90
26745;DHT22;14342;50.960;13.880;2023-04-01T04:08:49;10.60;99.90
26745;DHT22;14342;50.960;13.880;2023-04-01T04:09:50;10.60;99.90
26745;DHT22;14342;50.960;13.880;2023-04-01T04:10:55;10.60;99.90
26745;DHT22;14342;50.960;13.880;2023-04-01T04:11:57;10.60;99.90
26745;DHT22;14342;50.960;13.880;2023-04-01T04:12:58;10.60;99.90
26745;DHT22;14342;50.960;13.880;2023-04-01T04:13:59;10.60;99.90
26745;DHT22;14342;50.960;13.880;2023-04-01T04:15:00;10.50;99.90
26745;DHT22;14342;50.960;13.880;2023-04-01T04:16:01;10.60;99.90
26745;DHT22;14342;50.960;13.880;2023-04-01T04:17:02;10.50;99.90
26745;DHT22;14342;50.960;13.880;2023-04-01T04:18:04;10.50;99.90
26745;DHT22;14342;50.960;13.880;2023-04-01T04:19:04;10.40;99.90
26745;DHT22;14342;50.960;13.880;2023-04-01T04:20:06;10.40;99.90
26745;DHT22;14342;50.960;13.880;2023-04-01T04:21:10;10.50;99.90
26745;DHT22;14342;50.960;13.880;2023-04-01T04:22:12;10.50;99.90
26745;DHT22;14342;50.960;13.880;2023-04-01T04:23:13;10.50;99.90
26745;DHT22;14342;50.960;13.880;2023-04-01T04:24:14;10.60;99.90
26745;DHT22;14342;50.960;13.880;2023-04-01T04:25:15;10.60;99.90
26745;DHT22;14342;50.960;13.880;2023-04-01T04:26:18;10.60;99.90
26745;DHT22;14342;50.960;13.880;2023-04-01T04:27:19;10.60;99.90
26745;DHT22;14342;50.960;13.880;2023-04-01T04:28:20;10.60;99.90
26745;DHT22;14342;50.960;13.880;2023-04-01T04:29:21;10.60;99.90
26745;DHT22;14342;50.960;13.880;2023-04-01T04:30:23;10.60;99.90
26745;DHT22;14342;50.960;13.880;2023-04-01T04:31:24;10.60;99.90
26745;DHT22;14342;50.960;13.880;2023-04-01T04:32:25;10.60;99.90
26745;DHT22;14342;50.960;13.880;2023-04-01T04:33:26;10.60;99.90
26745;DHT22;14342;50.960;13.880;2023-04-01T04:34:28;10.50;99.90
26745;DHT22;14342;50.960;13.880;2023-04-01T04:35:29;10.50;99.90
26745;DHT22;14342;50.960;13.880;2023-04-01T04:36:30;10.50;99.90
26745;DHT22;14342;50.960;13.880;2023-04-01T04:37:31;10.40;99.90
26745;DHT22;14342;50.960;13.880;2023-04-01T04:38:32;10.30;99.90
26745;DHT22;14342;50.960;13.880;2023-04-01T04:39:33;10.30;99.90
26745;DHT22;14342;50.960;13.880;2023-04-01T04:40:35;10.30;99.90
26745;DHT22;14342;50.960;13.880;2023-04-01T04:41:37;10.30;99.90
26745;DHT22;14342;50.960;13.880;2023-04-01T04:42:39;10.40;99.90
26745;DHT22;14342;50.960;13.880;2023-04-01T04:43:40;10.40;99.90
26745;DHT22;14342;50.960;13.880;2023-04-01T04:44:41;10.50;99.90
26745;DHT22;14342;50.960;13.880;2023-04-01T04:45:42;10.50;99.90
26745;DHT22;14342;50.960;13.880;2023-04-01T04:46:43;10.60;99.90
26745;DHT22;14342;50.960;13.880;2023-04-01T04:47:45;10.60;99.90
26745;DHT22;14342;50.960;13.880;2023-04-01T04:48:46;10.60;99.90
26745;DHT22;14342;50.960;13.880;2023-04-01T04:49:48;10.50;99.90
26745;DHT22;14342;50.960;13.880;2023-04-01T04:50:49;10.40;99.90
26745;DHT22;14342;50.960;13.880;2023-04-01T04:51:50;10.60;99.90
26745;DHT22;14342;50.960;13.880;2023-04-01T04:52:52;10.50;99.90
26745;DHT22;14342;50.960;13.880;2023-04-01T04:53:54;10.60;99.90
26745;DHT22;14342;50.960;13.880;2023-04-01T04:54:54;10.80;99.90
26745;DHT22;14342;50.960;13.880;2023-04-01T04:55:56;10.60;99.90
26745;DHT22;14342;50.960;13.880;2023-04-01T04:56:58;10.60;99.90
26745;DHT22;14342;50.960;13.880;2023-04-01T04:58:00;10.60;99.90
26745;DHT22;14342;50.960;13.880;2023-04-01T04:59:00;10.70;99.90
26745;DHT22;14342;50.960;13.880;2023-04-01T05:00:02;10.70;99.90
26745;DHT22;14342;50.960;13.880;2023-04-01T05:01:07;10.70;99.90
26745;DHT22;14342;50.960;13.880;2023-04-01T05:02:08;10.70;99.90
26745;DHT22;14342;50.960;13.880;2023-04-01T05:03:09;10.70;99.90
26745;DHT22;14342;50.960;13.880;2023-04-01T05:04:10;10.70;99.90
26745;DHT22;14342;50.960;13.880;2023-04-01T05:05:11;10.60;99.90
26745;DHT22;14342;50.960;13.880;2023-04-01T05:06:16;10.60;99.90
26745;DHT22;14342;50.960;13.880;2023-04-01T05:07:17;10.60;99.90
26745;DHT22;14342;50.960;13.880;2023-04-01T05:08:19;10.60;99.90
26745;DHT22;14342;50.960;13.880;2023-04-01T05:09:19;10.60;99.90
26745;DHT22;14342;50.960;13.880;2023-04-01T05:10:21;10.50;99.90
26745;DHT22;14342;50.960;13.880;2023-04-01T05:11:22;10.60;99.90
26745;DHT22;14342;50.960;13.880;2023-04-01T05:12:25;10.60;99.90
26745;DHT22;14342;50.960;13.880;2023-04-01T05:13:26;10.60;99.90
26745;DHT22;14342;50.960;13.880;2023-04-01T05:14:27;10.70;99.90
26745;DHT22;14342;50.960;13.880;2023-04-01T05:15:28;10.70;99.90
26745;DHT22;14342;50.960;13.880;2023-04-01T05:16:30;10.60;99.90
26745;DHT22;14342;50.960;13.880;2023-04-01T05:17:31;10.60;99.90
26745;DHT22;14342;50.960;13.880;2023-04-01T05:18:33;10.60;99.90
26745;DHT22;14342;50.960;13.880;2023-04-01T05:19:35;10.50;99.90
26745;DHT22;14342;50.960;13.880;2023-04-01T05:20:35;10.40;99.90
26745;DHT22;14342;50.960;13.880;2023-04-01T05:21:37;10.40;99.90
26745;DHT22;14342;50.960;13.880;2023-04-01T05:22:38;10.40;99.90
26745;DHT22;14342;50.960;13.880;2023-04-01T05:23:39;10.40;99.90
26745;DHT22;14342;50.960;13.880;2023-04-01T05:24:40;10.60;99.90
26745;DHT22;14342;50.960;13.880;2023-04-01T05:25:41;10.30;99.90
26745;DHT22;14342;50.960;13.880;2023-04-01T05:26:42;10.40;99.90
26745;DHT22;14342;50.960;13.880;2023-04-01T05:27:45;10.40;99.90
26745;DHT22;14342;50.960;13.880;2023-04-01T05:28:45;10.50;99.90
26745;DHT22;14342;50.960;13.880;2023-04-01T05:29:47;10.40;99.90
26745;DHT22;14342;50.960;13.880;2023-04-01T05:30:47;10.50;99.90
26745;DHT22;14342;50.960;13.880;2023-04-01T05:31:49;10.50;99.90
26745;DHT22;14342;50.960;13.880;2023-04-01T05:32:50;10.50;99.90
26745;DHT22;14342;50.960;13.880;2023-04-01T05:33:51;10.50;99.90
26745;DHT22;14342;50.960;13.880;2023-04-01T05:34:52;10.50;99.90
26745;DHT22;14342;50.960;13.880;2023-04-01T05:35:54;10.50;99.90
26745;DHT22;14342;50.960;13.880;2023-04-01T05:36:55;10.40;99.90
26745;DHT22;14342;50.960;13.880;2023-04-01T05:37:56;10.30;99.90
26745;DHT22;14342;50.960;13.880;2023-04-01T05:38:57;10.30;99.90
26745;DHT22;14342;50.960;13.880;2023-04-01T05:39:58;10.20;99.90
26745;DHT22;14342;50.960;13.880;2023-04-01T05:40:59;10.20;99.90
26745;DHT22;14342;50.960;13.880;2023-04-01T05:42:00;10.20;99.90
26745;DHT22;14342;50.960;13.880;2023-04-01T05:43:02;10.20;99.90
26745;DHT22;14342;50.960;13.880;2023-04-01T05:44:04;10.30;99.90
26745;DHT22;14342;50.960;13.880;2023-04-01T05:45:06;10.30;99.90
26745;DHT22;14342;50.960;13.880;2023-04-01T05:46:09;10.30;99.90
26745;DHT22;14342;50.960;13.880;2023-04-01T05:47:10;10.30;99.90
26745;DHT22;14342;50.960;13.880;2023-04-01T05:48:11;10.30;99.90
26745;DHT22;14342;50.960;13.880;2023-04-01T05:49:12;10.20;99.90
26745;DHT22;14342;50.960;13.880;2023-04-01T05:50:13;10.20;99.90
26745;DHT22;14342;50.960;13.880;2023-04-01T05:51:15;10.10;99.90
26745;DHT22;14342;50.960;13.880;2023-04-01T05:52:17;10.20;99.90
26745;DHT22;14342;50.960;13.880;2023-04-01T05:53:17;10.30;99.90
26745;DHT22;14342;50.960;13.880;2023-04-01T05:54:19;10.30;99.90
26745;DHT22;14342;50.960;13.880;2023-04-01T05:55:20;10.30;99.90
26745;DHT22;14342;50.960;13.880;2023-04-01T05:56:21;10.30;99.90
26745;DHT22;14342;50.960;13.880;2023-04-01T05:57:22;10.30;99.90
26745;DHT22;14342;50.960;13.880;2023-04-01T05:58:25;10.40;99.90
26745;DHT22;14342;50.960;13.880;2023-04-01T05:59:25;10.40;99.90
26745;DHT22;14342;50.960;13.880;2023-04-01T06:00:27;10.40;99.90
26745;DHT22;14342;50.960;13.880;2023-04-01T06:01:27;10.40;99.90
26745;DHT22;14342;50.960;13.880;2023-04-01T06:02:29;10.50;99.90
26745;DHT22;14342;50.960;13.880;2023-04-01T06:03:30;10.40;99.90
26745;DHT22;14342;50.960;13.880;2023-04-01T06:04:32;10.30;99.90
26745;DHT22;14342;50.960;13.880;2023-04-01T06:05:38;10.40;99.90
26745;DHT22;14342;50.960;13.880;2023-04-01T06:06:39;10.50;99.90
26745;DHT22;14342;50.960;13.880;2023-04-01T06:07:40;10.50;99.90
26745;DHT22;14342;50.960;13.880;2023-04-01T06:08:42;10.50;99.90
26745;DHT22;14342;50.960;13.880;2023-04-01T06:09:43;10.60;99.90
26745;DHT22;14342;50.960;13.880;2023-04-01T06:10:50;10.50;99.90
26745;DHT22;14342;50.960;13.880;2023-04-01T06:12:02;10.50;99.90
26745;DHT22;14342;50.960;13.880;2023-04-01T06:13:10;10.60;99.90
26745;DHT22;14342;50.960;13.880;2023-04-01T06:14:18;10.60;99.90
26745;DHT22;14342;50.960;13.880;2023-04-01T06:15:26;10.50;99.90
26745;DHT22;14342;50.960;13.880;2023-04-01T06:16:30;10.50;99.90
26745;DHT22;14342;50.960;13.880;2023-04-01T06:17:38;10.60;99.90
26745;DHT22;14342;50.960;13.880;2023-04-01T06:18:44;10.60;99.90
26745;DHT22;14342;50.960;13.880;2023-04-01T06:19:47;10.60;99.90
26745;DHT22;14342;50.960;13.880;2023-04-01T06:20:53;10.70;99.90
26745;DHT22;14342;50.960;13.880;2023-04-01T06:22:08;10.60;99.90
26745;DHT22;14342;50.960;13.880;2023-04-01T06:23:16;10.60;99.90
26745;DHT22;14342;50.960;13.880;2023-04-01T06:24:33;10.60;99.90
26745;DHT22;14342;50.960;13.880;2023-04-01T06:25:43;10.60;99.90
26745;DHT22;14342;50.960;13.880;2023-04-01T06:26:49;10.70;99.90
26745;DHT22;14342;50.960;13.880;2023-04-01T06:28:01;10.70;99.90
26745;DHT22;14342;50.960;13.880;2023-04-01T06:29:09;10.70;99.90
26745;DHT22;14342;50.960;13.880;2023-04-01T06:30:27;10.70;99.90